Elon, NC

09:49 EDT le 27 septembre 2016 (GMT -0400)
Brownstone Drive | | Change Station

Alt. 702 ft 36.11 °N, 79.53 °W | Updated 7 minutes ago

Overcast
Couvert
68.2 ° F
Paraît 68.2 ° F
N
3.1
Vent Variable Vent de Sud
Gusts 9.3 mph

Aujourd'hui
Haut(e) -- | Bas -- ° F
--% Risque de précip.
Hier
Haut(e) -- | Bas -- ° F
Precip. -- pouce
Pression 29.99 pouce
Visibilité 10.0 Miles terrestres
Nuages Couvert 500 ft
Point de rosée 68 ° F
Humidité 100%
Précipitations 0.00 pouce
Profondeur de la couche neigeuse Non disponible.
7:10 AM 7:06 PM
Lune descendante, 11% visible
SPECI KBUY 271319Z AUTO 00000KT 10SM OVC005 20/20 A2999 RMK AO2 T02000200
Pression 29.99 pouce
Visibilité 10.0 Miles terrestres
Nuages Couvert 500 ft
Point de rosée 68 ° F
Humidité 100%
Précipitations 0.00 pouce
Profondeur de la couche neigeuse Non disponible.
7:10 AM 7:06 PM
Lune descendante, 11% visible
SPECI KBUY 271319Z AUTO 00000KT 10SM OVC005 20/20 A2999 RMK AO2 T02000200

10-Day Weather Forecast

Almanac

Astronomie

Sep. 27, 2016 Lever Coucher
Temps réel
Crépuscule civil
Crépuscule nautique
Crépuscule astronomique
Lune
Durée de lumière visible
Longueur du jour
Tomorrow will be .
, % of the Moon is Illuminated

Extrêmes aujourd'hui

State Highs State Lows

Community

WunderPhotos

Upload Photos

1,942,079 Photos téléchargées !

WunderBlog® & News

Nearby

Qualité de l'air

  Qualité de l'air Indice de la qualité de l'air Polluant
Not available.

Épaisseur de neige

Station Depth Altitude

Activité sismique

Ville Distance Mag. Time & Date
Minimum magnitude displayed is 2.5.

Températures des eaux côtières

Lieu Température

Stations

Stations météo à proximité

Emplacement de la station Température Refroidissement éolien Point de rosée Humidité Vent Precip. Alt. Mise à jour Type
                   

Watches & Warnings

There are currently no watches in effect.